Time;durP1;ratioP1;P1;durP2;ratioP2;P2;SDS_P1;SDS_P2;PMS_P1;PMS_P2;Temp;Humidity;BMP_temperature;BMP_pressure;BME280_temperature;BME280_humidity;BME280_pressure;Samples;Min_cycle;Max_cycle;Signal;HPM_P1;HPM_P2
2021/12/20 00:01:08;;;;;;;2.67;1.73;;;8.30;99.90;;;;;;5012671;28;20085;-69
2021/12/20 00:03:34;;;;;;;3.05;1.80;;;8.40;99.90;;;;;;5013859;28;20021;-69
2021/12/20 00:06:00;;;;;;;3.33;2.22;;;8.30;99.90;;;;;;5013411;28;20460;-69
2021/12/20 00:08:27;;;;;;;3.78;1.92;;;8.30;99.90;;;;;;5013522;28;20030;-67
2021/12/20 00:10:53;;;;;;;6.40;2.22;;;8.30;99.90;;;;;;5011737;28;20053;-69
2021/12/20 00:13:19;;;;;;;4.80;2.25;;;8.40;99.90;;;;;;5013602;28;20123;-69
2021/12/20 00:15:45;;;;;;;5.20;2.13;;;8.40;99.90;;;;;;5012906;28;20030;-70
2021/12/20 00:18:11;;;;;;;7.70;2.10;;;8.40;99.90;;;;;;5013508;28;20068;-68
2021/12/20 00:20:37;;;;;;;5.15;2.33;;;8.30;99.90;;;;;;5011970;28;20133;-67
2021/12/20 00:23:04;;;;;;;4.63;2.40;;;8.10;99.90;;;;;;5012076;28;20538;-69
2021/12/20 00:25:31;;;;;;;3.33;2.05;;;8.10;99.90;;;;;;5014574;28;20022;-68
2021/12/20 00:27:57;;;;;;;3.47;1.73;;;8.10;99.90;;;;;;5014435;28;20049;-67
2021/12/20 00:30:23;;;;;;;3.40;2.28;;;8.10;99.90;;;;;;5013587;28;20038;-67
2021/12/20 00:32:48;;;;;;;3.45;1.65;;;8.20;99.90;;;;;;5011658;28;20531;-68
2021/12/20 00:35:17;;;;;;;6.25;2.28;;;8.20;99.90;;;;;;5013125;28;20030;-67
2021/12/20 00:40:27;;;;;;;2.85;1.67;;;8.20;99.90;;;;;;5013112;28;20048;-67
2021/12/20 00:43:01;;;;;;;3.30;1.67;;;8.20;99.90;;;;;;5011865;28;20455;-68
2021/12/20 00:45:29;;;;;;;5.22;1.52;;;8.10;99.90;;;;;;5012447;28;20076;-74
2021/12/20 00:47:59;;;;;;;2.95;1.75;;;8.20;99.90;;;;;;5012967;28;20077;-68
2021/12/20 00:50:26;;;;;;;3.60;1.58;;;8.10;99.90;;;;;;5011753;28;20026;-67
2021/12/20 00:52:53;;;;;;;5.00;1.75;;;8.20;99.90;;;;;;5012397;28;20069;-68
2021/12/20 00:55:20;;;;;;;4.30;2.30;;;8.20;99.90;;;;;;5012842;28;20479;-67
2021/12/20 00:57:47;;;;;;;5.35;1.85;;;8.20;99.90;;;;;;5012484;28;20038;-67
2021/12/20 01:00:16;;;;;;;3.97;1.80;;;8.10;99.90;;;;;;5012962;28;20037;-67
2021/12/20 01:02:43;;;;;;;6.20;2.58;;;8.00;99.90;;;;;;5012475;28;20387;-72
2021/12/20 01:05:10;;;;;;;3.38;2.03;;;8.10;99.90;;;;;;5012003;28;20050;-67
2021/12/20 01:07:35;;;;;;;3.55;1.90;;;8.10;99.90;;;;;;5013076;28;20062;-66
2021/12/20 01:10:05;;;;;;;3.53;1.95;;;8.20;99.90;;;;;;5012165;28;20053;-68
2021/12/20 01:12:41;;;;;;;4.13;2.03;;;8.20;99.90;;;;;;5011654;28;20120;-68
2021/12/20 01:15:12;;;;;;;5.35;2.00;;;8.10;99.90;;;;;;5012403;28;20455;-67
2021/12/20 01:17:37;;;;;;;5.82;2.88;;;8.20;99.90;;;;;;5012789;28;20025;-70
2021/12/20 01:20:05;;;;;;;8.68;2.25;;;8.10;99.90;;;;;;5013034;28;20432;-68
2021/12/20 01:22:31;;;;;;;4.05;2.35;;;8.20;99.90;;;;;;5012583;28;20026;-68
2021/12/20 01:24:56;;;;;;;3.00;1.75;;;8.20;99.90;;;;;;5012348;28;20409;-70
2021/12/20 01:27:22;;;;;;;5.93;1.80;;;8.30;99.90;;;;;;5012822;28;20026;-69
2021/12/20 01:29:47;;;;;;;4.03;2.13;;;8.40;99.90;;;;;;5010474;28;20141;-68
2021/12/20 01:32:13;;;;;;;2.97;1.98;;;8.30;99.90;;;;;;5012620;28;20415;-67
2021/12/20 01:34:39;;;;;;;4.13;2.08;;;8.40;99.90;;;;;;5011634;28;20058;-67
2021/12/20 01:37:04;;;;;;;4.82;1.95;;;8.20;99.90;;;;;;5010804;28;20120;-67
2021/12/20 01:39:30;;;;;;;6.10;2.05;;;8.20;99.90;;;;;;5012693;28;20136;-66
2021/12/20 01:41:58;;;;;;;3.10;1.70;;;8.20;99.90;;;;;;5012223;28;20446;-67
2021/12/20 01:44:23;;;;;;;6.60;1.75;;;8.30;99.90;;;;;;5012841;28;20038;-70
2021/12/20 01:46:49;;;;;;;3.53;1.50;;;8.20;99.90;;;;;;5011164;28;20428;-68
2021/12/20 01:49:16;;;;;;;3.75;1.55;;;8.10;99.90;;;;;;5014725;28;20025;-69
2021/12/20 01:51:50;;;;;;;3.97;1.70;;;8.20;99.90;;;;;;5014870;28;20049;-68
2021/12/20 01:54:16;;;;;;;2.60;1.27;;;8.20;99.90;;;;;;5013345;28;20070;-69
2021/12/20 01:56:44;;;;;;;4.00;1.95;;;8.30;99.90;;;;;;5017500;28;20029;-75
2021/12/20 01:59:11;;;;;;;6.45;1.73;;;8.10;99.90;;;;;;5016016;28;20030;-73
2021/12/20 02:01:37;;;;;;;3.33;1.38;;;8.10;99.90;;;;;;5015907;28;20463;-68
2021/12/20 02:04:06;;;;;;;3.15;1.80;;;8.00;99.90;;;;;;5016188;28;20022;-68
2021/12/20 02:06:46;;;;;;;6.07;1.95;;;8.00;99.90;;;;;;5015455;28;20072;-67
2021/12/20 02:09:15;;;;;;;3.72;1.27;;;8.10;99.90;;;;;;5016864;28;20360;-68
2021/12/20 02:11:45;;;;;;;4.22;1.65;;;8.10;99.90;;;;;;5016702;28;20081;-68
2021/12/20 02:14:11;;;;;;;6.40;1.92;;;8.00;99.90;;;;;;5017612;28;20048;-71
2021/12/20 02:16:41;;;;;;;3.38;1.58;;;8.10;99.90;;;;;;5018529;28;20034;-70
2021/12/20 02:19:13;;;;;;;4.97;1.63;;;8.10;99.90;;;;;;5015253;28;20058;-69
2021/12/20 02:21:40;;;;;;;3.30;2.00;;;8.10;99.90;;;;;;5016094;28;20032;-70
2021/12/20 02:24:06;;;;;;;8.95;2.08;;;8.10;99.90;;;;;;5015789;28;20026;-67
2021/12/20 02:26:32;;;;;;;3.20;2.13;;;8.10;99.90;;;;;;5015497;28;20048;-69
2021/12/20 02:29:03;;;;;;;8.57;1.98;;;8.00;99.90;;;;;;5014914;28;20104;-67
2021/12/20 02:39:42;;;;;;;6.07;1.65;;;8.00;99.90;;;;;;5016418;28;20085;-67
2021/12/20 02:42:11;;;;;;;6.40;1.30;;;8.10;99.90;;;;;;5016559;28;20030;-70
2021/12/20 02:44:37;;;;;;;4.43;1.25;;;8.20;99.90;;;;;;5017177;28;20052;-68
2021/12/20 02:47:06;;;;;;;3.70;1.50;;;8.10;99.90;;;;;;5014254;28;20057;-67
2021/12/20 02:49:33;;;;;;;3.35;1.90;;;8.10;99.90;;;;;;5015099;28;20021;-69
2021/12/20 02:52:07;;;;;;;2.70;0.93;;;8.10;99.90;;;;;;5014347;28;20076;-67
2021/12/20 02:54:34;;;;;;;5.97;1.33;;;8.20;99.90;;;;;;5013568;28;20357;-68
2021/12/20 02:57:00;;;;;;;3.80;1.42;;;8.20;99.90;;;;;;5014183;28;20061;-66
2021/12/20 02:59:26;;;;;;;2.50;1.05;;;8.20;99.90;;;;;;5014645;28;20448;-66
2021/12/20 03:01:58;;;;;;;4.55;1.17;;;8.20;99.90;;;;;;5013902;28;20033;-67
2021/12/20 03:04:25;;;;;;;3.65;1.55;;;8.20;99.90;;;;;;5014427;28;20030;-66
2021/12/20 03:06:57;;;;;;;4.13;1.25;;;8.10;99.90;;;;;;5013753;28;20062;-69
2021/12/20 03:09:29;;;;;;;3.83;1.35;;;8.20;99.90;;;;;;5014734;28;20052;-67
2021/12/20 03:11:59;;;;;;;;;;;8.20;99.90;;;;;;5013351;28;20430;-68
2021/12/20 03:14:31;;;;;;;3.08;1.73;;;8.20;99.90;;;;;;5013484;28;19912;-67
2021/12/20 03:16:58;;;;;;;4.60;1.70;;;8.10;99.90;;;;;;5013966;28;20375;-67
2021/12/20 03:19:25;;;;;;;4.22;1.40;;;8.10;99.90;;;;;;5013411;28;20030;-67
2021/12/20 03:21:51;;;;;;;7.18;1.60;;;8.10;99.90;;;;;;5014367;28;20033;-72
2021/12/20 03:24:17;;;;;;;5.57;1.60;;;8.10;99.90;;;;;;5014735;28;20033;-67
2021/12/20 03:26:43;;;;;;;10.45;1.65;;;8.10;99.90;;;;;;5014313;28;20534;-67
2021/12/20 03:29:08;;;;;;;4.50;1.25;;;8.10;99.90;;;;;;5013787;28;20075;-66
2021/12/20 03:31:35;;;;;;;5.93;1.65;;;8.10;99.90;;;;;;5012827;28;20030;-67
2021/12/20 03:34:02;;;;;;;4.47;1.02;;;8.00;99.90;;;;;;5012432;28;20029;-67
2021/12/20 03:36:28;;;;;;;6.82;1.58;;;8.00;99.90;;;;;;5029422;28;20455;-67
2021/12/20 03:38:54;;;;;;;7.30;2.42;;;8.00;99.90;;;;;;5012367;28;20033;-68
2021/12/20 03:41:20;;;;;;;5.72;1.73;;;8.00;99.90;;;;;;5013850;28;20034;-66
2021/12/20 03:43:46;;;;;;;11.40;1.63;;;8.10;99.90;;;;;;5014190;28;20038;-68
2021/12/20 03:46:12;;;;;;;8.80;1.73;;;8.00;99.90;;;;;;5012283;28;20780;-68
2021/12/20 03:48:38;;;;;;;4.70;1.30;;;8.00;99.90;;;;;;5014114;28;20116;-68
2021/12/20 03:51:04;;;;;;;11.07;2.72;;;8.00;99.90;;;;;;5012190;28;20030;-69
2021/12/20 03:53:33;;;;;;;8.52;1.55;;;8.00;99.90;;;;;;5013950;28;20026;-68
2021/12/20 03:55:59;;;;;;;6.35;2.40;;;8.00;99.90;;;;;;5013797;28;20050;-68
2021/12/20 03:58:28;;;;;;;5.63;2.10;;;8.00;99.90;;;;;;5014331;28;20037;-71
2021/12/20 04:00:56;;;;;;;6.40;1.25;;;7.90;99.90;;;;;;5012550;28;20475;-71
2021/12/20 04:03:22;;;;;;;5.78;1.60;;;7.90;99.90;;;;;;5014258;28;20068;-73
2021/12/20 04:05:47;;;;;;;6.53;2.85;;;8.00;99.90;;;;;;5016054;28;20422;-67
2021/12/20 04:08:13;;;;;;;9.85;1.80;;;8.00;99.90;;;;;;5013415;28;20406;-67
2021/12/20 04:10:39;;;;;;;8.05;2.10;;;8.00;99.90;;;;;;5013876;28;20026;-68
2021/12/20 04:13:04;;;;;;;5.75;1.30;;;8.00;99.90;;;;;;5011596;28;20034;-67
2021/12/20 04:15:30;;;;;;;10.48;1.63;;;7.90;99.90;;;;;;5012819;28;20029;-69
2021/12/20 04:17:56;;;;;;;12.15;2.17;;;7.90;99.90;;;;;;5012372;28;20026;-74
2021/12/20 04:20:22;;;;;;;8.70;1.92;;;7.90;99.90;;;;;;5013100;28;20057;-66
2021/12/20 04:22:47;;;;;;;6.45;1.60;;;7.80;99.90;;;;;;5013393;28;20557;-66
2021/12/20 04:25:13;;;;;;;9.00;1.60;;;7.80;99.90;;;;;;5012969;28;20037;-67
2021/12/20 04:27:39;;;;;;;10.38;1.50;;;7.70;99.90;;;;;;5013364;28;20482;-69
2021/12/20 04:30:10;;;;;;;11.27;1.80;;;7.70;99.90;;;;;;5011126;28;20137;-67
2021/12/20 04:32:41;;;;;;;14.03;1.73;;;7.80;99.90;;;;;;5012263;28;20077;-67
2021/12/20 04:35:08;;;;;;;9.13;2.20;;;7.80;99.90;;;;;;5012978;28;20109;-67
2021/12/20 04:37:34;;;;;;;11.25;2.47;;;7.80;99.90;;;;;;5013570;28;20049;-69
2021/12/20 04:40:04;;;;;;;9.52;2.80;;;7.70;99.90;;;;;;5012528;28;20026;-72
2021/12/20 04:42:30;;;;;;;13.55;2.00;;;7.80;99.90;;;;;;5013779;28;20039;-68
2021/12/20 04:44:56;;;;;;;9.88;2.35;;;7.80;99.90;;;;;;5012848;28;20030;-73
2021/12/20 04:47:21;;;;;;;10.07;2.53;;;7.70;99.90;;;;;;5013232;28;20056;-66
2021/12/20 04:49:47;;;;;;;12.23;2.38;;;7.60;99.90;;;;;;5013048;28;20037;-72
2021/12/20 04:52:12;;;;;;;18.00;3.10;;;7.60;99.90;;;;;;5011569;28;20034;-69
2021/12/20 04:54:38;;;;;;;13.43;2.70;;;7.70;99.90;;;;;;5014844;28;20060;-68
2021/12/20 04:57:04;;;;;;;12.90;2.33;;;7.60;99.90;;;;;;5032681;28;20410;-68
2021/12/20 04:59:30;;;;;;;14.60;2.33;;;7.60;99.90;;;;;;5033053;28;20079;-72
2021/12/20 05:01:56;;;;;;;11.13;2.83;;;7.60;99.90;;;;;;5033280;28;20033;-67
2021/12/20 05:04:21;;;;;;;9.02;3.00;;;7.50;99.90;;;;;;5031980;28;20052;-67
2021/12/20 05:06:49;;;;;;;13.02;2.45;;;7.50;99.90;;;;;;5031791;28;20396;-68
2021/12/20 05:09:17;;;;;;;12.00;2.53;;;7.40;99.90;;;;;;5032779;28;20455;-69
2021/12/20 05:11:50;;;;;;;10.65;2.45;;;7.50;99.90;;;;;;5032942;28;20034;-67
2021/12/20 05:14:16;;;;;;;12.55;2.28;;;7.60;99.90;;;;;;5033288;28;20471;-72
2021/12/20 05:16:42;;;;;;;12.68;3.25;;;7.60;99.90;;;;;;5033964;28;20026;-70
2021/12/20 05:19:10;;;;;;;18.85;4.57;;;7.50;99.90;;;;;;5032822;28;20029;-71
2021/12/20 05:21:39;;;;;;;14.43;2.35;;;7.50;99.90;;;;;;5048683;28;20030;-72
2021/12/20 05:24:04;;;;;;;15.73;2.20;;;7.40;99.90;;;;;;5032804;28;20467;-73
2021/12/20 05:26:30;;;;;;;16.77;2.88;;;7.40;99.90;;;;;;5033333;28;20101;-73
2021/12/20 05:28:56;;;;;;;18.17;4.10;;;7.40;99.90;;;;;;5033856;28;20053;-72
2021/12/20 05:31:22;;;;;;;11.90;2.70;;;7.20;99.90;;;;;;5036916;28;20402;-68
2021/12/20 05:33:47;;;;;;;11.95;2.90;;;7.30;99.90;;;;;;5038912;28;20025;-69
2021/12/20 05:36:13;;;;;;;12.18;3.10;;;7.30;99.90;;;;;;5038313;28;20030;-71
2021/12/20 05:38:39;;;;;;;15.73;3.17;;;7.30;99.90;;;;;;5039448;28;20033;-71
2021/12/20 05:41:05;;;;;;;13.20;2.08;;;7.10;99.90;;;;;;5039025;28;20079;-68
2021/12/20 05:43:30;;;;;;;15.43;2.85;;;7.20;99.90;;;;;;5039133;28;20026;-66
2021/12/20 05:45:56;;;;;;;17.85;3.13;;;7.10;99.90;;;;;;5037093;28;20029;-68
2021/12/20 05:48:22;;;;;;;15.50;2.65;;;7.00;99.90;;;;;;5037525;28;20032;-69
2021/12/20 05:50:48;;;;;;;12.52;2.72;;;7.10;99.90;;;;;;5038381;28;20025;-69
2021/12/20 05:53:13;;;;;;;12.98;2.75;;;7.00;99.90;;;;;;5036693;28;20037;-67
2021/12/20 05:55:39;;;;;;;18.50;4.20;;;7.00;99.90;;;;;;5035918;28;20022;-67
2021/12/20 05:58:05;;;;;;;15.73;2.78;;;6.90;99.90;;;;;;5034270;28;20079;-68
2021/12/20 06:00:31;;;;;;;15.38;3.22;;;6.80;99.90;;;;;;5034612;28;20030;-68
2021/12/20 06:02:56;;;;;;;13.35;3.13;;;6.90;99.90;;;;;;5036189;28;20029;-68
2021/12/20 06:05:22;;;;;;;14.95;3.10;;;6.90;99.90;;;;;;5035369;28;20029;-68
2021/12/20 06:07:48;;;;;;;19.85;3.15;;;6.90;99.90;;;;;;5035999;28;20039;-68
2021/12/20 06:10:17;;;;;;;20.67;3.22;;;6.90;99.90;;;;;;5034227;28;20128;-68
2021/12/20 06:12:44;;;;;;;21.77;2.78;;;6.80;99.90;;;;;;5034817;28;20084;-68
2021/12/20 06:15:11;;;;;;;17.38;4.15;;;6.80;99.90;;;;;;5034853;28;20109;-74
2021/12/20 06:17:37;;;;;;;16.60;2.78;;;6.80;99.90;;;;;;5036211;28;20025;-68
2021/12/20 06:20:05;;;;;;;15.45;2.85;;;6.70;99.90;;;;;;5035444;28;20033;-68
2021/12/20 06:22:30;;;;;;;13.93;2.60;;;6.70;99.90;;;;;;5036257;28;20033;-67
2021/12/20 06:24:56;;;;;;;13.60;2.65;;;6.70;99.90;;;;;;5034270;28;20026;-67
2021/12/20 06:27:22;;;;;;;12.98;3.25;;;6.60;99.90;;;;;;5035353;28;20044;-75
2021/12/20 06:29:48;;;;;;;16.35;3.85;;;6.60;99.90;;;;;;5035570;28;20491;-69
2021/12/20 06:32:13;;;;;;;20.50;4.55;;;6.50;99.90;;;;;;5035022;28;20040;-68
2021/12/20 06:34:39;;;;;;;17.00;3.00;;;6.50;99.90;;;;;;5035514;28;20033;-70
2021/12/20 06:37:06;;;;;;;22.35;3.28;;;6.40;99.90;;;;;;5035112;28;20025;-67
2021/12/20 06:39:32;;;;;;;12.77;3.03;;;6.40;99.90;;;;;;5035805;28;20136;-68
2021/12/20 06:41:58;;;;;;;12.82;2.70;;;6.30;99.90;;;;;;5035052;28;20064;-69
2021/12/20 06:44:24;;;;;;;9.23;2.58;;;6.30;99.90;;;;;;5035365;28;20610;-67
2021/12/20 06:46:51;;;;;;;12.93;2.97;;;6.20;99.90;;;;;;5034262;28;20036;-69
2021/12/20 06:49:16;;;;;;;14.18;2.72;;;6.20;99.90;;;;;;5033236;28;20033;-68
2021/12/20 06:51:45;;;;;;;15.07;3.10;;;6.20;99.90;;;;;;5034557;28;20034;-68
2021/12/20 06:54:14;;;;;;;15.27;3.20;;;6.10;99.90;;;;;;5032716;28;20034;-68
2021/12/20 06:56:40;;;;;;;22.15;3.97;;;6.20;99.90;;;;;;5034450;28;20518;-67
2021/12/20 06:59:06;;;;;;;18.65;3.15;;;6.00;99.90;;;;;;5034451;28;20064;-69
2021/12/20 07:01:32;;;;;;;17.52;2.90;;;6.00;99.90;;;;;;5034905;28;20072;-68
2021/12/20 07:03:58;;;;;;;16.65;3.05;;;6.10;99.90;;;;;;5036791;28;20029;-70
2021/12/20 07:06:24;;;;;;;19.38;3.20;;;6.00;99.90;;;;;;5035113;28;20320;-68
2021/12/20 07:08:50;;;;;;;13.73;2.60;;;5.80;99.90;;;;;;5034525;28;20379;-68
2021/12/20 07:11:15;;;;;;;14.15;2.88;;;5.80;99.90;;;;;;5033742;28;20339;-68
2021/12/20 07:13:42;;;;;;;17.08;3.15;;;5.80;99.90;;;;;;5034614;28;20026;-68
2021/12/20 07:16:08;;;;;;;15.93;3.25;;;5.80;99.90;;;;;;5033595;28;20410;-67
2021/12/20 07:18:35;;;;;;;29.95;4.50;;;5.80;99.90;;;;;;5033757;28;20025;-67
2021/12/20 07:21:01;;;;;;;13.57;3.30;;;5.80;99.90;;;;;;5033111;28;20029;-68
2021/12/20 07:23:26;;;;;;;25.92;4.40;;;5.80;99.90;;;;;;5032523;28;20040;-69
2021/12/20 07:25:52;;;;;;;26.48;3.83;;;5.80;99.90;;;;;;5033819;28;20025;-67
2021/12/20 07:28:18;;;;;;;20.05;3.42;;;5.80;99.90;;;;;;5033555;28;20076;-69
2021/12/20 07:30:48;;;;;;;17.23;3.00;;;5.70;99.90;;;;;;5034364;28;20083;-68
2021/12/20 07:33:15;;;;;;;22.83;3.63;;;5.70;99.90;;;;;;5033813;28;20041;-67
2021/12/20 07:35:42;;;;;;;11.85;2.90;;;5.70;99.90;;;;;;5034211;28;20021;-69
2021/12/20 07:38:12;;;;;;;18.70;4.13;;;5.80;99.90;;;;;;5033167;28;20037;-67
2021/12/20 07:40:38;;;;;;;13.68;3.65;;;5.80;99.90;;;;;;5034589;28;20064;-69
2021/12/20 07:43:04;;;;;;;18.65;3.75;;;5.70;99.90;;;;;;5034255;28;20040;-68
2021/12/20 07:45:30;;;;;;;13.98;4.00;;;5.80;99.90;;;;;;5031884;28;20022;-68
2021/12/20 07:47:55;;;;;;;13.98;4.63;;;5.70;99.90;;;;;;5035161;28;20021;-67
2021/12/20 07:50:22;;;;;;;11.23;3.17;;;5.60;99.90;;;;;;5034178;28;20104;-68
2021/12/20 07:52:49;;;;;;;46.53;6.45;;;5.70;99.90;;;;;;5033042;28;20044;-68
2021/12/20 07:55:16;;;;;;;22.58;4.13;;;6.10;99.90;;;;;;5033792;28;20387;-70
2021/12/20 07:57:42;;;;;;;11.38;4.03;;;6.40;99.90;;;;;;5034591;28;20037;-68
2021/12/20 08:00:10;;;;;;;20.50;4.80;;;7.20;99.90;;;;;;5033150;28;20065;-69
2021/12/20 08:02:36;;;;;;;12.38;2.95;;;7.90;99.90;;;;;;5036463;28;20029;-69
2021/12/20 08:05:03;;;;;;;18.05;3.35;;;8.60;99.90;;;;;;5037522;28;20021;-70
2021/12/20 08:07:29;;;;;;;13.15;4.60;;;9.40;99.90;;;;;;5033095;28;20032;-68
2021/12/20 08:09:55;;;;;;;15.30;4.00;;;9.80;99.90;;;;;;5029816;28;20116;-69
2021/12/20 08:12:20;;;;;;;16.92;4.20;;;10.60;99.50;;;;;;5029876;28;20131;-68
2021/12/20 08:14:46;;;;;;;17.75;3.63;;;11.20;98.40;;;;;;5030954;28;20040;-67
2021/12/20 08:17:12;;;;;;;10.15;2.90;;;11.70;97.00;;;;;;5028777;28;20029;-67
2021/12/20 08:19:38;;;;;;;17.25;4.07;;;11.90;96.00;;;;;;5045901;28;20029;-67
2021/12/20 08:22:04;;;;;;;15.85;3.03;;;12.40;94.60;;;;;;5030402;28;20033;-68
2021/12/20 08:24:32;;;;;;;13.93;3.08;;;12.80;93.90;;;;;;5028550;28;20026;-69
2021/12/20 08:26:57;;;;;;;13.38;3.17;;;12.90;93.80;;;;;;5029465;28;20033;-68
2021/12/20 08:29:24;;;;;;;9.20;2.63;;;13.20;92.20;;;;;;5029369;28;20073;-69
2021/12/20 08:31:50;;;;;;;12.32;3.63;;;14.00;90.40;;;;;;5030285;28;20033;-68
2021/12/20 08:34:16;;;;;;;13.07;2.78;;;14.60;87.20;;;;;;5029364;28;20474;-70
2021/12/20 08:36:42;;;;;;;14.45;3.38;;;14.80;87.00;;;;;;5030714;28;20026;-70
2021/12/20 08:39:09;;;;;;;14.65;3.47;;;15.00;85.10;;;;;;5030176;28;20048;-69
2021/12/20 08:41:35;;;;;;;14.00;2.65;;;15.20;82.80;;;;;;5029985;28;20524;-68
2021/12/20 08:44:01;;;;;;;15.02;3.00;;;15.90;80.70;;;;;;5030106;28;20471;-69
2021/12/20 08:46:26;;;;;;;11.63;2.88;;;16.30;78.30;;;;;;5029718;28;20043;-70
2021/12/20 08:48:56;;;;;;;13.48;3.35;;;16.30;77.30;;;;;;5030423;28;20060;-68
2021/12/20 08:51:22;;;;;;;14.30;3.40;;;16.60;76.00;;;;;;5028277;28;20374;-69
2021/12/20 08:53:47;;;;;;;16.02;3.75;;;17.00;80.00;;;;;;5030163;28;20029;-69
2021/12/20 08:56:13;;;;;;;14.40;4.00;;;16.70;82.30;;;;;;5029773;28;20034;-69
2021/12/20 08:58:39;;;;;;;18.95;4.68;;;16.50;81.80;;;;;;5045582;28;20033;-69
2021/12/20 09:01:05;;;;;;;16.63;4.15;;;17.00;82.20;;;;;;5041171;28;20029;-69
2021/12/20 09:03:30;;;;;;;16.42;3.80;;;17.40;82.50;;;;;;5004941;28;20438;-72
2021/12/20 09:05:56;;;;;;;9.25;2.53;;;17.70;83.60;;;;;;5029974;28;20398;-68
2021/12/20 09:08:22;;;;;;;17.98;2.90;;;18.10;90.80;;;;;;5012253;28;20033;-68
2021/12/20 09:10:49;;;;;;;14.90;3.38;;;17.90;68.90;;;;;;5014485;28;20144;-68
2021/12/20 09:13:15;;;;;;;13.32;2.63;;;18.20;68.70;;;;;;5013587;28;20034;-68
2021/12/20 09:15:41;;;;;;;13.30;4.47;;;18.10;68.80;;;;;;5011511;28;20022;-69
2021/12/20 09:18:08;;;;;;;7.60;2.35;;;17.70;68.30;;;;;;5010411;28;20041;-70
2021/12/20 09:20:36;;;;;;;13.80;4.57;;;18.40;67.60;;;;;;5001137;28;20045;-68
2021/12/20 09:23:05;;;;;;;12.15;3.95;;;18.60;66.80;;;;;;5011500;28;20090;-68
2021/12/20 09:25:33;;;;;;;13.32;3.42;;;18.80;66.90;;;;;;5010977;28;20289;-67
2021/12/20 09:27:59;;;;;;;10.38;2.55;;;18.60;65.70;;;;;;5006497;28;20026;-68
2021/12/20 09:30:29;;;;;;;13.10;2.42;;;18.60;66.10;;;;;;5013418;28;20026;-68
2021/12/20 09:32:55;;;;;;;15.27;3.03;;;18.40;66.20;;;;;;5013873;28;20061;-68
2021/12/20 09:35:21;;;;;;;10.15;2.63;;;17.80;66.20;;;;;;5013780;28;20132;-68
2021/12/20 09:37:50;;;;;;;9.95;2.90;;;17.50;67.40;;;;;;5004360;28;20026;-68
2021/12/20 09:40:18;;;;;;;14.00;2.80;;;17.60;67.20;;;;;;4992374;28;20085;-68
2021/12/20 09:42:51;;;;;;;10.20;3.20;;;17.60;67.10;;;;;;4999883;28;20116;-68
2021/12/20 09:45:21;;;;;;;17.45;3.42;;;17.60;67.80;;;;;;5007376;28;20036;-69
2021/12/20 09:47:49;;;;;;;11.05;4.05;;;17.60;66.80;;;;;;5011917;28;20022;-68
2021/12/20 09:50:15;;;;;;;12.40;3.38;;;17.40;67.80;;;;;;5010090;28;20474;-70
2021/12/20 09:52:42;;;;;;;17.40;3.80;;;17.70;67.00;;;;;;5013388;28;20167;-68
2021/12/20 09:55:14;;;;;;;8.93;3.42;;;18.30;66.80;;;;;;5013771;28;20095;-68
2021/12/20 09:57:41;;;;;;;10.77;2.92;;;17.90;65.80;;;;;;5012480;28;20033;-67
2021/12/20 10:00:12;;;;;;;10.63;2.67;;;17.80;66.10;;;;;;5011920;28;20029;-68
2021/12/20 10:02:38;;;;;;;21.42;3.35;;;18.10;66.70;;;;;;5007204;28;20080;-69
2021/12/20 10:05:04;;;;;;;10.70;3.60;;;18.20;64.50;;;;;;5012217;28;20025;-67
2021/12/20 10:07:31;;;;;;;13.93;2.67;;;18.00;66.30;;;;;;5011257;28;20454;-69
2021/12/20 10:09:59;;;;;;;12.65;3.53;;;17.20;66.70;;;;;;5013756;28;20412;-70
2021/12/20 10:12:26;;;;;;;10.25;2.88;;;17.40;66.50;;;;;;5012679;28;20471;-68
2021/12/20 10:15:01;;;;;;;13.57;3.03;;;17.80;66.80;;;;;;5013713;28;20018;-67
2021/12/20 10:17:34;;;;;;;11.45;3.63;;;18.10;66.00;;;;;;5013085;28;20021;-68
2021/12/20 10:20:32;;;;;;;14.80;3.38;;;18.10;65.80;;;;;;5013306;28;20125;-67
2021/12/20 10:23:15;;;;;;;12.07;3.15;;;18.30;67.10;;;;;;5000222;28;20034;-67
2021/12/20 10:25:43;;;;;;;15.82;3.33;;;18.30;66.30;;;;;;5012724;28;20492;-67
2021/12/20 10:28:12;;;;;;;11.45;2.40;;;18.20;64.20;;;;;;5012323;28;20049;-67
2021/12/20 10:30:48;;;;;;;8.70;2.70;;;18.10;64.30;;;;;;5012205;28;20121;-68
2021/12/20 10:33:17;;;;;;;9.05;2.53;;;18.30;65.10;;;;;;5012614;28;20029;-66
2021/12/20 10:35:54;;;;;;;10.45;2.33;;;18.10;63.70;;;;;;5012405;28;20370;-68
2021/12/20 10:38:38;;;;;;;10.25;3.15;;;17.70;63.60;;;;;;5010776;28;20117;-67
2021/12/20 10:41:22;;;;;;;13.77;2.83;;;17.80;64.50;;;;;;5013060;28;20069;-68
2021/12/20 10:43:54;;;;;;;9.95;2.53;;;18.60;63.10;;;;;;5011607;28;20116;-66
2021/12/20 10:46:23;;;;;;;9.05;2.35;;;18.50;62.40;;;;;;5010965;28;20029;-68
2021/12/20 10:48:57;;;;;;;10.55;2.30;;;18.40;62.60;;;;;;5011141;28;20029;-68
2021/12/20 10:51:30;;;;;;;9.30;2.90;;;18.90;61.90;;;;;;5011638;28;20026;-68
2021/12/20 10:54:01;;;;;;;9.55;2.55;;;18.90;62.10;;;;;;5012596;28;20076;-67
2021/12/20 10:56:32;;;;;;;9.93;2.72;;;18.90;60.00;;;;;;5018808;28;20022;-67
2021/12/20 10:58:59;;;;;;;;;;;19.30;61.40;;;;;;5017747;28;20034;-68
2021/12/20 11:04:23;;;;;;;6.85;2.58;;;19.10;61.40;;;;;;5019680;28;20463;-69
2021/12/20 11:09:44;;;;;;;10.60;2.92;;;19.20;59.60;;;;;;5011370;28;20348;-68
2021/12/20 11:12:13;;;;;;;10.75;2.22;;;18.90;58.40;;;;;;5005917;28;20026;-68
2021/12/20 11:14:43;;;;;;;8.25;2.17;;;18.50;59.50;;;;;;5009477;28;20025;-68
2021/12/20 11:17:12;;;;;;;8.57;2.43;;;18.70;59.40;;;;;;5000922;28;20301;-69
2021/12/20 11:19:40;;;;;;;10.00;2.47;;;19.00;59.20;;;;;;5005440;28;20289;-68
2021/12/20 11:22:09;;;;;;;8.88;3.15;;;18.50;58.60;;;;;;5001495;28;20144;-68
2021/12/20 11:24:43;;;;;;;8.18;3.03;;;17.90;60.30;;;;;;5010494;28;20033;-69
2021/12/20 11:27:14;;;;;;;9.18;1.85;;;18.90;59.90;;;;;;5007648;28;20485;-68
2021/12/20 11:29:41;;;;;;;10.25;2.22;;;19.10;58.50;;;;;;5003899;28;20042;-68
2021/12/20 11:32:08;;;;;;;10.20;2.75;;;19.10;56.50;;;;;;5004079;28;20034;-69
2021/12/20 11:34:34;;;;;;;6.07;1.48;;;19.30;55.50;;;;;;5001406;28;20033;-68
2021/12/20 11:37:00;;;;;;;6.15;2.38;;;19.20;56.50;;;;;;5005000;28;20427;-68
2021/12/20 11:39:27;;;;;;;8.05;1.90;;;19.80;56.30;;;;;;5003561;28;20030;-69
2021/12/20 11:41:53;;;;;;;14.20;2.00;;;19.90;56.20;;;;;;5008373;28;20045;-70
2021/12/20 11:44:23;;;;;;;7.00;1.85;;;19.80;55.60;;;;;;5010875;28;20040;-70
2021/12/20 11:47:08;;;;;;;8.80;2.50;;;19.90;54.50;;;;;;5010503;28;20026;-69
2021/12/20 11:49:35;;;;;;;8.38;1.40;;;19.90;55.10;;;;;;5010923;28;20088;-70
2021/12/20 11:52:18;;;;;;;6.32;1.77;;;20.00;54.90;;;;;;5008336;28;20034;-70
2021/12/20 11:54:48;;;;;;;9.02;1.98;;;20.60;53.90;;;;;;5003591;28;20440;-71
2021/12/20 11:57:36;;;;;;;5.72;1.65;;;19.90;54.50;;;;;;5011049;28;20391;-70
2021/12/20 12:00:17;;;;;;;10.25;2.25;;;20.10;54.00;;;;;;5007430;28;20033;-69
2021/12/20 12:02:45;;;;;;;8.47;1.90;;;20.00;53.60;;;;;;5008750;28;20040;-72
2021/12/20 12:05:15;;;;;;;4.85;1.48;;;20.10;54.00;;;;;;5006477;28;20415;-69
2021/12/20 12:07:41;;;;;;;10.10;2.87;;;20.30;53.90;;;;;;5007549;28;20239;-70
2021/12/20 12:10:12;;;;;;;14.45;2.17;;;20.30;53.20;;;;;;5008547;28;20245;-70
2021/12/20 12:12:42;;;;;;;8.38;2.38;;;20.40;52.50;;;;;;5004935;28;20033;-70
2021/12/20 12:15:21;;;;;;;9.30;2.10;;;20.80;53.30;;;;;;5002099;28;20029;-71
2021/12/20 12:17:56;;;;;;;10.32;2.20;;;20.90;52.90;;;;;;5009509;28;20114;-71
2021/12/20 12:20:39;;;;;;;5.35;1.98;;;21.20;52.10;;;;;;5009823;28;20131;-72
2021/12/20 12:23:24;;;;;;;21.85;1.85;;;20.70;51.90;;;;;;5005537;28;20030;-71
2021/12/20 12:25:51;;;;;;;4.18;1.20;;;20.70;51.20;;;;;;5022576;28;20032;-72
2021/12/20 12:28:23;;;;;;;7.05;1.77;;;20.70;51.50;;;;;;5007158;28;20459;-71
2021/12/20 12:31:05;;;;;;;7.43;1.70;;;21.10;50.60;;;;;;5001230;28;20099;-72
2021/12/20 12:33:34;;;;;;;5.53;1.92;;;21.00;49.80;;;;;;5009860;28;20026;-70
2021/12/20 12:36:05;;;;;;;4.28;1.00;;;21.20;49.60;;;;;;5008880;28;20459;-69
2021/12/20 12:38:48;;;;;;;7.85;2.17;;;21.00;49.30;;;;;;5003334;28;20017;-71
2021/12/20 12:41:21;;;;;;;10.57;2.28;;;20.00;49.40;;;;;;4989207;28;20052;-70
2021/12/20 12:43:52;;;;;;;6.68;1.80;;;20.60;50.10;;;;;;5010385;28;20033;-70
2021/12/20 12:46:50;;;;;;;4.53;1.55;;;20.80;50.10;;;;;;5010709;28;20018;-71
2021/12/20 12:49:22;;;;;;;6.40;1.63;;;20.40;49.30;;;;;;4985659;28;20064;-71
2021/12/20 12:51:50;;;;;;;5.18;1.85;;;20.60;50.40;;;;;;5008394;28;20037;-71
2021/12/20 12:54:46;;;;;;;12.38;3.28;;;20.60;50.30;;;;;;5009311;28;20040;-70
2021/12/20 12:57:11;;;;;;;7.35;2.60;;;21.20;49.30;;;;;;5007994;28;20068;-72
2021/12/20 12:59:57;;;;;;;8.68;2.20;;;21.90;49.10;;;;;;5008942;28;20125;-71
2021/12/20 13:02:29;;;;;;;9.63;2.33;;;22.40;48.60;;;;;;5010023;28;20482;-70
2021/12/20 13:05:14;;;;;;;7.28;1.88;;;23.00;48.20;;;;;;5006245;28;20033;-71
2021/12/20 13:07:41;;;;;;;9.80;2.40;;;23.10;47.80;;;;;;5001002;28;20060;-71
2021/12/20 13:10:39;;;;;;;7.72;1.95;;;23.20;47.50;;;;;;5008526;28;20106;-71